Miami, Florida
Traffic Map
Current Weather Conditions
Miami, Florida
Clear
Clear
74°
Feels Like: 74°
Wind Chill: 74° Ceiling: Unl
Heat Index: 74° Visibility: 10mi
Dew Point: 62° Wind: 3mph
Humidity: 66% Direction: 190° (S)
Pressure: 30.16in Gusts: 0mph
Raw Report DataKMIA 020253Z 19003KT 10SM CLR 23/17 A3016 RMK AO2 SLP212 T02330167 53018
Traffic Incident Summary
Active as of:
Severity:
Category:
InformationThere was an issue retrieving the traffic information for this location. Please try a different location or try again shortly.
Advertisements
Track Severe Weather on mobile